Time;durP1;ratioP1;P1;durP2;ratioP2;P2;SDS_P1;SDS_P2;PMS_P1;PMS_P2;Temp;Humidity;BMP_temperature;BMP_pressure;BME280_temperature;BME280_humidity;BME280_pressure;Samples;Min_cycle;Max_cycle;Signal;HPM_P1;HPM_P2
2022/10/01 00:02:20;;;;;;;175.43;57.25;;;10.90;99.90;;;;;;9857735;30;20143;-81
2022/10/01 00:07:20;;;;;;;197.50;65.03;;;10.90;99.90;;;;;;9863512;30;20032;-79
2022/10/01 00:12:21;;;;;;;356.42;121.97;;;10.90;99.90;;;;;;9851834;30;20044;-79
2022/10/01 00:17:21;;;;;;;455.25;129.00;;;10.90;99.90;;;;;;9860366;30;20044;-79
2022/10/01 00:22:22;;;;;;;315.48;91.63;;;10.90;99.90;;;;;;9851095;30;20086;-78
2022/10/01 00:27:23;;;;;;;211.80;67.47;;;10.90;99.90;;;;;;9861570;30;20097;-82
2022/10/01 00:32:24;;;;;;;212.13;66.30;;;10.90;99.90;;;;;;9862176;30;20451;-78
2022/10/01 00:37:25;;;;;;;249.10;71.88;;;10.90;99.90;;;;;;9861098;30;20051;-79
2022/10/01 00:42:26;;;;;;;216.43;67.65;;;10.80;99.90;;;;;;9861202;30;20672;-79
2022/10/01 00:47:36;;;;;;;235.23;71.97;;;10.80;99.90;;;;;;9862310;30;20040;-80
2022/10/01 00:52:39;;;;;;;210.20;63.42;;;10.80;99.90;;;;;;9858775;30;20127;-79
2022/10/01 00:57:41;;;;;;;172.30;57.83;;;10.80;99.90;;;;;;9854396;30;20130;-79
2022/10/01 01:02:42;;;;;;;208.80;60.58;;;10.80;99.90;;;;;;9860676;30;20098;-79
2022/10/01 01:07:46;;;;;;;183.23;56.25;;;10.70;99.90;;;;;;9860855;30;20119;-79
2022/10/01 01:12:54;;;;;;;188.43;58.88;;;10.60;99.90;;;;;;9843055;30;20066;-81
2022/10/01 01:18:13;;;;;;;170.35;52.90;;;10.60;99.90;;;;;;9861046;30;20119;-81
2022/10/01 01:23:14;;;;;;;206.95;61.60;;;10.60;99.90;;;;;;9860935;30;20039;-80
2022/10/01 01:28:52;;;;;;;151.48;50.85;;;10.60;99.90;;;;;;9864741;30;20036;-80
2022/10/01 01:33:54;;;;;;;188.02;59.58;;;10.60;99.90;;;;;;9856569;30;20516;-79
2022/10/01 01:39:00;;;;;;;184.43;59.28;;;10.50;99.90;;;;;;9857589;30;20050;-79
2022/10/01 01:44:03;;;;;;;189.13;61.53;;;10.50;99.90;;;;;;9850584;30;20143;-79
2022/10/01 01:49:05;;;;;;;177.98;58.78;;;10.50;99.90;;;;;;9857285;30;20027;-79
2022/10/01 01:54:05;;;;;;;222.15;68.18;;;10.50;99.90;;;;;;9865417;30;20043;-79
2022/10/01 01:59:07;;;;;;;229.45;80.35;;;10.40;99.90;;;;;;9866419;30;20074;-79
2022/10/01 02:04:41;;;;;;;210.60;68.75;;;10.40;99.90;;;;;;9866283;30;20082;-79
2022/10/01 02:10:15;;;;;;;290.02;106.50;;;10.30;99.90;;;;;;9846238;30;20039;-80
2022/10/01 02:15:21;;;;;;;317.10;110.00;;;10.20;99.90;;;;;;9854722;30;20047;-81
2022/10/01 02:20:46;;;;;;;314.65;98.80;;;10.20;99.90;;;;;;9866150;30;20378;-81
2022/10/01 02:25:55;;;;;;;229.10;73.75;;;10.20;99.90;;;;;;9852900;30;20050;-79
2022/10/01 02:30:58;;;;;;;276.17;81.18;;;10.20;99.90;;;;;;9865226;30;20077;-79
2022/10/01 02:36:02;;;;;;;257.83;77.88;;;10.10;99.90;;;;;;9864906;30;20616;-79
2022/10/01 02:41:06;;;;;;;234.43;72.63;;;10.20;99.90;;;;;;9864060;30;20087;-79
2022/10/01 02:46:20;;;;;;;238.68;74.35;;;10.20;99.90;;;;;;9864173;30;20059;-79
2022/10/01 02:51:34;;;;;;;235.02;72.25;;;10.30;99.90;;;;;;9864835;30;20032;-79
2022/10/01 03:01:55;;;;;;;248.82;76.18;;;10.30;99.90;;;;;;9862201;30;20047;-78
2022/10/01 03:07:02;;;;;;;288.48;85.78;;;10.20;99.90;;;;;;9854730;30;20040;-81
2022/10/01 03:12:02;;;;;;;298.15;93.82;;;10.20;99.90;;;;;;9849177;30;20028;-79
2022/10/01 03:17:03;;;;;;;279.25;81.45;;;10.20;99.90;;;;;;9842792;30;20061;-81
2022/10/01 03:22:04;;;;;;;291.80;83.50;;;10.20;99.90;;;;;;9864060;30;20503;-79
2022/10/01 03:27:05;;;;;;;349.40;91.13;;;10.20;99.90;;;;;;9863772;30;20107;-81
2022/10/01 03:32:06;;;;;;;258.17;83.57;;;10.20;99.90;;;;;;9850064;30;20066;-79
2022/10/01 03:37:07;;;;;;;233.60;76.55;;;10.10;99.90;;;;;;9853591;30;20433;-79
2022/10/01 03:42:07;;;;;;;241.73;76.05;;;10.10;99.90;;;;;;9862034;30;21273;-79
2022/10/01 03:47:08;;;;;;;171.52;61.20;;;9.80;99.90;;;;;;9862476;30;20040;-79
2022/10/01 03:52:09;;;;;;;337.08;79.20;;;9.70;99.90;;;;;;9863272;30;20047;-78
2022/10/01 03:57:09;;;;;;;366.40;85.43;;;9.50;99.90;;;;;;9861520;30;20048;-81
2022/10/01 04:02:10;;;;;;;279.63;79.87;;;9.30;99.90;;;;;;9861917;30;20067;-80
2022/10/01 04:07:10;;;;;;;254.77;77.43;;;9.30;99.90;;;;;;9862239;30;20059;-79
2022/10/01 04:12:11;;;;;;;411.80;112.17;;;9.40;99.90;;;;;;9861529;30;20039;-79
2022/10/01 04:17:12;;;;;;;338.97;83.00;;;9.40;99.90;;;;;;9861861;30;20031;-79
2022/10/01 04:22:12;;;;;;;458.40;96.03;;;9.60;99.90;;;;;;9861297;30;20051;-79
2022/10/01 04:27:13;;;;;;;397.37;85.77;;;9.70;99.90;;;;;;9829544;30;20393;-80
2022/10/01 04:32:14;;;;;;;339.17;79.60;;;9.70;99.90;;;;;;9855465;30;20111;-79
2022/10/01 04:37:15;;;;;;;445.60;90.50;;;9.80;99.90;;;;;;9861614;30;20081;-81
2022/10/01 04:42:16;;;;;;;370.67;87.90;;;9.90;99.90;;;;;;9860308;30;20135;-79
2022/10/01 04:47:16;;;;;;;434.33;95.55;;;9.90;99.90;;;;;;9860083;30;20040;-80
2022/10/01 04:52:17;;;;;;;762.42;113.43;;;9.90;99.90;;;;;;9855890;30;20040;-78
2022/10/01 04:57:21;;;;;;;373.77;78.30;;;9.90;99.90;;;;;;9861054;30;20130;-79
2022/10/01 05:02:21;;;;;;;593.10;99.53;;;10.00;99.90;;;;;;9857171;30;20063;-79
2022/10/01 05:07:22;;;;;;;558.83;92.50;;;10.00;99.90;;;;;;9867770;30;20531;-81
2022/10/01 05:12:24;;;;;;;445.00;81.97;;;10.00;99.90;;;;;;9866559;30;20040;-78
2022/10/01 05:17:25;;;;;;;482.45;96.32;;;10.00;99.90;;;;;;9860494;30;20043;-80
2022/10/01 05:22:26;;;;;;;477.58;92.03;;;10.00;99.90;;;;;;9867385;30;20711;-78
2022/10/01 05:27:26;;;;;;;415.10;84.13;;;10.00;99.90;;;;;;9866860;30;20035;-78
2022/10/01 05:32:27;;;;;;;458.33;85.80;;;10.00;99.90;;;;;;9867049;30;20052;-78
2022/10/01 05:37:28;;;;;;;379.77;70.70;;;10.00;99.90;;;;;;9859513;30;20444;-78
2022/10/01 05:42:28;;;;;;;412.02;102.25;;;9.90;99.90;;;;;;9865385;30;20062;-78
2022/10/01 05:47:29;;;;;;;665.35;131.13;;;9.90;99.90;;;;;;9866999;30;20139;-81
2022/10/01 05:52:30;;;;;;;486.20;118.10;;;9.80;99.90;;;;;;9865620;30;20044;-79
2022/10/01 05:57:31;;;;;;;738.80;180.65;;;9.80;99.90;;;;;;9860953;30;20401;-78
2022/10/01 06:02:31;;;;;;;555.33;128.47;;;9.80;99.90;;;;;;9843129;30;20674;-77
2022/10/01 06:07:32;;;;;;;391.20;96.53;;;9.90;99.90;;;;;;9865941;30;20031;-79
2022/10/01 06:12:33;;;;;;;524.67;119.20;;;9.90;99.90;;;;;;9862872;30;20039;-77
2022/10/01 06:17:33;;;;;;;596.40;162.95;;;10.00;99.90;;;;;;9858004;30;20154;-78
2022/10/01 06:22:34;;;;;;;268.40;67.28;;;10.10;99.90;;;;;;9864733;30;20044;-78
2022/10/01 06:27:34;;;;;;;304.83;71.88;;;10.10;99.90;;;;;;9862963;30;20089;-78
2022/10/01 06:32:35;;;;;;;247.07;63.58;;;10.20;99.90;;;;;;9860945;30;20036;-77
2022/10/01 06:37:37;;;;;;;330.13;79.78;;;10.30;99.90;;;;;;9864029;30;20040;-79
2022/10/01 06:42:37;;;;;;;237.75;73.43;;;10.30;99.90;;;;;;9861427;30;20044;-81
2022/10/01 06:47:38;;;;;;;296.67;66.10;;;10.40;99.90;;;;;;9860977;30;20055;-79
2022/10/01 06:52:47;;;;;;;264.00;67.45;;;10.50;99.90;;;;;;9864488;30;20044;-78
2022/10/01 06:58:11;;;;;;;245.85;60.55;;;10.50;99.90;;;;;;9859589;30;20035;-79
2022/10/01 07:03:15;;;;;;;205.73;58.33;;;10.60;99.90;;;;;;9863493;30;20064;-79
2022/10/01 07:08:16;;;;;;;212.05;61.13;;;10.70;99.90;;;;;;9864275;30;20408;-77
2022/10/01 07:13:19;;;;;;;192.52;58.85;;;10.80;99.90;;;;;;9861119;30;20041;-77
2022/10/01 07:18:20;;;;;;;208.75;59.72;;;10.90;99.90;;;;;;9863328;30;20081;-79
2022/10/01 07:23:23;;;;;;;209.05;60.97;;;11.00;99.90;;;;;;9863203;30;20559;-79
2022/10/01 07:28:24;;;;;;;213.38;71.78;;;11.10;99.90;;;;;;9851830;30;20048;-79
2022/10/01 07:33:25;;;;;;;215.02;71.78;;;11.20;99.90;;;;;;9856435;30;20085;-78
2022/10/01 07:38:26;;;;;;;225.23;83.20;;;11.20;99.90;;;;;;9858031;30;20130;-79
2022/10/01 07:43:26;;;;;;;199.63;69.28;;;11.30;99.90;;;;;;9863070;30;20036;-81
2022/10/01 07:48:27;;;;;;;202.75;67.90;;;11.40;99.90;;;;;;9862788;30;20032;-78
2022/10/01 07:53:28;;;;;;;184.98;60.65;;;11.50;99.90;;;;;;9862374;30;20050;-80
2022/10/01 07:58:28;;;;;;;156.90;53.88;;;11.70;99.90;;;;;;9858228;30;20310;-81
2022/10/01 08:03:29;;;;;;;173.15;58.40;;;11.80;99.90;;;;;;9862122;30;20116;-81
2022/10/01 08:08:30;;;;;;;174.45;65.63;;;11.90;99.90;;;;;;9861720;30;20044;-78
2022/10/01 08:13:30;;;;;;;152.25;61.35;;;12.00;99.90;;;;;;9856353;30;20439;-82
2022/10/01 08:18:32;;;;;;;168.35;58.25;;;12.20;99.90;;;;;;9860863;30;20043;-81
2022/10/01 08:23:33;;;;;;;142.43;55.83;;;12.40;99.90;;;;;;9861231;30;20073;-78
2022/10/01 08:28:34;;;;;;;149.23;59.00;;;12.50;99.90;;;;;;9837650;30;20113;-78
2022/10/01 08:33:36;;;;;;;142.00;57.63;;;12.60;99.90;;;;;;9857635;30;20382;-78
2022/10/01 08:38:39;;;;;;;116.85;52.15;;;12.70;99.90;;;;;;9860244;30;20036;-79
2022/10/01 08:43:40;;;;;;;123.18;52.67;;;12.70;99.90;;;;;;9860664;30;20040;-78
2022/10/01 08:48:47;;;;;;;118.03;47.60;;;12.80;99.90;;;;;;9860699;30;20036;-80
2022/10/01 08:54:11;;;;;;;128.10;52.67;;;12.90;99.90;;;;;;9861527;30;20107;-79
2022/10/01 08:59:28;;;;;;;110.25;53.50;;;13.00;99.90;;;;;;9823585;30;20493;-78
2022/10/01 09:04:29;;;;;;;129.25;57.13;;;12.90;99.90;;;;;;9859667;30;20056;-78
2022/10/01 09:10:16;;;;;;;123.68;58.40;;;13.00;99.90;;;;;;9860776;30;20481;-78
2022/10/01 09:15:22;;;;;;;121.25;52.13;;;13.00;99.90;;;;;;9810837;30;20463;-79
2022/10/01 09:20:32;;;;;;;129.90;52.85;;;12.90;99.90;;;;;;9848867;30;20055;-82
2022/10/01 09:25:36;;;;;;;120.07;50.40;;;12.90;99.90;;;;;;9860951;30;20055;-77
2022/10/01 09:30:43;;;;;;;108.07;49.03;;;13.00;99.90;;;;;;9848950;30;20043;-78
2022/10/01 09:35:49;;;;;;;118.30;48.38;;;13.10;99.90;;;;;;9859901;30;20054;-77
2022/10/01 09:40:57;;;;;;;114.60;54.10;;;13.30;99.90;;;;;;9858558;30;20185;-77
2022/10/01 09:45:58;;;;;;;99.60;46.83;;;13.40;99.90;;;;;;9858427;30;20042;-78
2022/10/01 09:51:05;;;;;;;95.90;43.80;;;13.60;99.90;;;;;;9866868;30;20047;-80
2022/10/01 09:56:20;;;;;;;93.90;44.42;;;13.60;99.90;;;;;;9865404;30;20406;-82
2022/10/01 10:01:27;;;;;;;94.75;45.80;;;13.70;99.90;;;;;;9853202;30;20074;-77
2022/10/01 10:06:30;;;;;;;104.55;48.80;;;13.70;99.90;;;;;;9863492;30;20055;-77
2022/10/01 10:11:31;;;;;;;118.38;59.55;;;13.80;99.90;;;;;;9865142;30;20031;-78
2022/10/01 10:16:36;;;;;;;95.50;47.78;;;13.80;99.90;;;;;;9864974;30;20036;-77
2022/10/01 10:21:36;;;;;;;105.05;49.03;;;13.90;99.90;;;;;;9860677;30;20044;-78
2022/10/01 10:26:39;;;;;;;84.75;42.90;;;13.90;99.90;;;;;;9864868;30;20043;-80
2022/10/01 10:31:43;;;;;;;83.68;41.05;;;14.00;99.90;;;;;;9865446;30;20036;-82
2022/10/01 10:36:45;;;;;;;58.25;31.92;;;14.10;99.90;;;;;;9865427;30;20405;-78
2022/10/01 10:41:47;;;;;;;93.10;52.63;;;14.30;99.90;;;;;;9858032;30;20819;-82
2022/10/01 10:46:50;;;;;;;60.97;33.95;;;14.60;99.90;;;;;;9862266;30;20028;-78
2022/10/01 10:51:53;;;;;;;63.67;33.75;;;15.10;99.90;;;;;;9861880;30;20046;-78
2022/10/01 10:57:03;;;;;;;57.85;30.20;;;15.20;99.90;;;;;;9858825;30;20043;-81
2022/10/01 11:02:06;;;;;;;60.67;32.78;;;15.30;99.90;;;;;;9862581;30;20108;-78
2022/10/01 11:07:09;;;;;;;50.10;27.73;;;15.20;99.90;;;;;;9856016;30;20104;-78
2022/10/01 11:12:42;;;;;;;60.90;31.80;;;15.10;99.90;;;;;;9862568;30;20051;-80
2022/10/01 11:18:09;;;;;;;54.00;29.50;;;15.10;99.90;;;;;;9862953;30;20070;-81
2022/10/01 11:23:49;;;;;;;51.55;28.85;;;15.40;99.90;;;;;;9861913;30;20043;-79
2022/10/01 11:29:08;;;;;;;40.85;23.92;;;15.70;99.90;;;;;;9857632;30;20354;-79
2022/10/01 11:34:48;;;;;;;37.97;23.35;;;15.80;99.90;;;;;;9862869;30;20054;-79
2022/10/01 11:39:52;;;;;;;40.45;24.35;;;15.70;99.90;;;;;;9858911;30;20044;-81
2022/10/01 11:45:16;;;;;;;41.08;24.27;;;15.60;99.90;;;;;;9862318;30;20044;-80
2022/10/01 11:50:18;;;;;;;40.28;23.40;;;15.60;99.90;;;;;;9850917;30;20071;-80
2022/10/01 12:01:12;;;;;;;45.80;26.17;;;15.70;99.90;;;;;;9857776;30;20047;-80
2022/10/01 12:06:14;;;;;;;47.20;26.63;;;15.60;99.90;;;;;;9855423;30;20500;-82
2022/10/01 12:11:28;;;;;;;39.28;23.13;;;15.50;99.90;;;;;;9855980;30;20039;-79
2022/10/01 12:16:52;;;;;;;37.72;21.45;;;15.30;99.90;;;;;;9842514;30;20471;-79
2022/10/01 12:22:24;;;;;;;34.83;20.48;;;15.30;99.90;;;;;;9857604;30;20569;-80
2022/10/01 12:27:52;;;;;;;32.17;19.65;;;15.30;99.90;;;;;;9856485;30;20036;-80
2022/10/01 12:33:01;;;;;;;28.98;17.52;;;15.20;99.90;;;;;;9821785;30;20040;-78
2022/10/01 12:38:19;;;;;;;28.25;18.42;;;15.30;99.90;;;;;;9855588;30;20432;-82
2022/10/01 12:43:34;;;;;;;31.55;20.52;;;15.20;99.90;;;;;;9857799;30;20055;-83
2022/10/01 12:48:41;;;;;;;39.20;22.27;;;15.30;99.90;;;;;;9856976;30;20054;-80
2022/10/01 12:54:02;;;;;;;40.28;22.25;;;15.20;99.90;;;;;;9861230;30;20492;-80
2022/10/01 12:59:34;;;;;;;38.42;23.70;;;15.00;99.90;;;;;;9859591;30;20098;-80
2022/10/01 13:05:03;;;;;;;46.60;30.95;;;14.90;99.90;;;;;;9856073;30;20517;-80
2022/10/01 13:10:38;;;;;;;30.70;20.48;;;14.80;99.90;;;;;;9860295;30;20055;-79
2022/10/01 13:15:48;;;;;;;40.70;26.27;;;14.90;99.90;;;;;;9850135;30;20096;-79
2022/10/01 13:21:28;;;;;;;45.00;25.73;;;14.90;99.90;;;;;;9856049;30;20070;-81
2022/10/01 13:26:50;;;;;;;46.78;26.50;;;14.70;99.90;;;;;;9863666;30;20041;-80
2022/10/01 13:31:56;;;;;;;41.15;26.10;;;14.60;99.90;;;;;;9862254;30;20030;-81
2022/10/01 13:37:07;;;;;;;;;;;14.50;99.90;;;;;;9866600;30;20035;-80
2022/10/01 13:42:23;;;;;;;50.17;29.88;;;14.40;99.90;;;;;;9864337;30;20024;-80
2022/10/01 13:47:24;;;;;;;50.90;32.60;;;14.30;99.90;;;;;;9866112;30;20092;-81
2022/10/01 13:52:26;;;;;;;51.03;29.67;;;14.20;99.90;;;;;;9866231;30;20047;-79
2022/10/01 13:57:33;;;;;;;46.15;28.10;;;14.20;99.90;;;;;;9854601;30;20036;-82
2022/10/01 14:02:36;;;;;;;51.88;32.67;;;14.10;99.90;;;;;;9860885;30;20120;-82
2022/10/01 14:07:38;;;;;;;66.88;39.67;;;14.10;99.90;;;;;;9864941;30;20114;-79
2022/10/01 14:18:12;;;;;;;223.65;139.73;;;14.00;99.90;;;;;;9852799;30;20047;-79
2022/10/01 14:23:18;;;;;;;95.15;83.05;;;14.00;99.90;;;;;;9863561;30;20708;-80
2022/10/01 14:28:37;;;;;;;68.90;48.47;;;14.00;99.90;;;;;;9843792;30;20056;-82
2022/10/01 14:33:59;;;;;;;51.83;33.65;;;14.10;99.90;;;;;;9832315;30;20051;-81
2022/10/01 14:39:19;;;;;;;40.28;26.85;;;14.30;99.90;;;;;;9839861;30;20052;-78
2022/10/01 14:44:26;;;;;;;57.78;39.83;;;14.40;99.90;;;;;;9841291;30;20035;-80
2022/10/01 14:49:29;;;;;;;67.18;39.75;;;14.40;99.90;;;;;;9832251;30;20464;-82
2022/10/01 14:54:41;;;;;;;46.40;33.08;;;14.40;99.90;;;;;;9834463;30;20040;-78
2022/10/01 14:59:41;;;;;;;128.45;73.50;;;14.40;99.90;;;;;;9839561;30;20233;-78
2022/10/01 15:05:13;;;;;;;77.97;43.10;;;14.40;99.90;;;;;;9842751;30;20059;-79
2022/10/01 15:10:24;;;;;;;93.75;52.95;;;14.30;99.90;;;;;;9837134;30;20484;-80
2022/10/01 15:15:32;;;;;;;87.55;53.15;;;14.40;99.90;;;;;;9844869;30;20039;-80
2022/10/01 15:20:33;;;;;;;93.90;60.17;;;14.40;99.90;;;;;;9863228;30;20046;-80
2022/10/01 15:25:34;;;;;;;91.82;50.15;;;14.30;99.90;;;;;;9861847;30;20523;-79
2022/10/01 15:30:35;;;;;;;69.47;41.00;;;14.20;99.90;;;;;;9861689;30;20043;-83
2022/10/01 15:35:36;;;;;;;56.65;34.85;;;14.20;99.90;;;;;;9854785;30;20550;-83
2022/10/01 15:40:41;;;;;;;80.20;45.95;;;14.00;99.90;;;;;;9861579;30;20047;-79
2022/10/01 15:45:42;;;;;;;67.88;40.42;;;13.90;99.90;;;;;;9857084;30;20051;-79
2022/10/01 15:50:42;;;;;;;47.58;31.85;;;13.80;99.90;;;;;;9856097;30;20032;-79
2022/10/01 15:55:51;;;;;;;42.47;27.85;;;13.80;99.90;;;;;;9861373;30;20481;-83
2022/10/01 16:01:04;;;;;;;28.30;19.90;;;13.60;99.90;;;;;;9862616;30;20047;-78
2022/10/01 16:06:15;;;;;;;27.83;18.05;;;13.50;99.90;;;;;;9861532;30;20055;-81
2022/10/01 16:11:20;;;;;;;26.98;17.95;;;13.40;99.90;;;;;;9861540;30;20043;-80
2022/10/01 16:16:23;;;;;;;19.52;12.25;;;13.30;99.90;;;;;;9861004;30;20095;-82
2022/10/01 16:21:25;;;;;;;34.15;22.02;;;13.20;99.90;;;;;;9852353;30;20052;-79
2022/10/01 16:26:26;;;;;;;44.05;26.10;;;13.10;99.90;;;;;;9856258;30;20392;-80
2022/10/01 16:31:28;;;;;;;58.55;33.13;;;13.10;99.90;;;;;;9859380;30;20051;-80
2022/10/01 16:36:30;;;;;;;86.03;48.25;;;13.00;99.90;;;;;;9861167;30;20035;-79
2022/10/01 16:41:32;;;;;;;112.50;61.70;;;12.90;99.90;;;;;;9850785;30;20118;-79
2022/10/01 16:46:33;;;;;;;132.38;65.97;;;12.90;99.90;;;;;;9859107;30;20036;-79
2022/10/01 16:51:33;;;;;;;72.38;36.50;;;12.80;99.90;;;;;;9860293;30;20043;-80
2022/10/01 16:56:34;;;;;;;125.35;55.90;;;12.70;99.90;;;;;;9863959;30;20536;-81
2022/10/01 17:01:35;;;;;;;149.73;68.75;;;12.70;99.90;;;;;;9872959;30;20044;-83
2022/10/01 17:06:35;;;;;;;87.10;38.10;;;12.70;99.90;;;;;;9872823;30;20085;-83
2022/10/01 17:11:37;;;;;;;68.32;30.60;;;12.60;99.90;;;;;;9872518;30;20046;-79
2022/10/01 17:16:38;;;;;;;88.78;40.17;;;12.60;99.90;;;;;;9867857;30;20046;-79
2022/10/01 17:21:39;;;;;;;104.82;63.53;;;12.60;99.90;;;;;;9848475;30;20051;-79
2022/10/01 17:26:41;;;;;;;273.95;124.15;;;12.60;99.90;;;;;;9864095;30;20070;-81
2022/10/01 17:31:45;;;;;;;186.25;95.35;;;12.60;99.90;;;;;;9864283;30;20101;-81
2022/10/01 17:36:45;;;;;;;144.23;69.70;;;12.60;99.90;;;;;;9864138;30;20043;-79
2022/10/01 17:41:46;;;;;;;137.20;66.57;;;12.60;99.90;;;;;;9866029;30;20048;-83
2022/10/01 17:46:47;;;;;;;94.20;47.17;;;12.60;99.90;;;;;;9871872;30;20039;-81
2022/10/01 17:51:48;;;;;;;74.20;38.08;;;12.60;99.90;;;;;;9872739;30;20036;-81
2022/10/01 17:56:51;;;;;;;80.32;40.45;;;12.60;99.90;;;;;;9849712;30;20089;-79
2022/10/01 18:01:52;;;;;;;52.22;28.60;;;12.60;99.90;;;;;;9868339;30;20122;-80
2022/10/01 18:06:54;;;;;;;32.05;19.25;;;12.60;99.90;;;;;;9869001;30;20090;-80
2022/10/01 18:11:55;;;;;;;42.95;24.85;;;12.60;99.90;;;;;;9855890;30;20044;-81
2022/10/01 18:16:55;;;;;;;52.80;30.42;;;12.60;99.90;;;;;;9864905;30;20397;-80
2022/10/01 18:21:57;;;;;;;22.30;13.77;;;12.60;99.90;;;;;;9836138;30;20050;-80
2022/10/01 18:26:58;;;;;;;7.85;4.07;;;12.70;99.90;;;;;;9868761;30;20031;-81
2022/10/01 18:32:20;;;;;;;6.70;4.10;;;12.30;99.90;;;;;;9846699;30;20416;-81
2022/10/01 18:37:42;;;;;;;7.55;2.95;;;11.90;99.90;;;;;;9857323;30;20674;-83
2022/10/01 18:42:53;;;;;;;8.98;5.82;;;11.70;99.90;;;;;;9853345;30;20120;-82
2022/10/01 18:48:18;;;;;;;5.85;3.10;;;11.50;99.90;;;;;;9856898;30;20149;-81
2022/10/01 18:53:43;;;;;;;7.53;4.32;;;11.20;99.90;;;;;;9859253;30;20043;-81
2022/10/01 18:59:11;;;;;;;12.23;6.80;;;11.00;99.90;;;;;;9845106;30;20047;-80
2022/10/01 19:04:26;;;;;;;21.05;11.45;;;10.90;99.90;;;;;;9861254;30;20051;-80
2022/10/01 19:10:01;;;;;;;16.38;10.32;;;10.90;99.90;;;;;;9863943;30;20047;-81
2022/10/01 19:15:11;;;;;;;15.63;9.63;;;10.80;99.90;;;;;;9827337;30;20096;-83
2022/10/01 19:20:30;;;;;;;17.33;9.85;;;10.80;99.90;;;;;;9862946;30;20044;-83
2022/10/01 19:25:47;;;;;;;20.13;12.77;;;10.70;99.90;;;;;;9863831;30;20112;-81
2022/10/01 19:31:11;;;;;;;22.52;12.57;;;10.70;99.90;;;;;;9860837;30;20078;-83
2022/10/01 19:36:35;;;;;;;18.63;10.07;;;10.60;99.90;;;;;;9860655;30;20042;-79
2022/10/01 19:42:01;;;;;;;20.20;11.88;;;10.70;99.90;;;;;;9860618;30;20055;-82
2022/10/01 19:47:26;;;;;;;24.60;12.02;;;10.60;99.90;;;;;;9843433;30;20105;-81
2022/10/01 19:52:38;;;;;;;19.23;11.95;;;10.60;99.90;;;;;;9875484;30;20020;-81
2022/10/01 19:57:42;;;;;;;21.15;13.07;;;10.60;99.90;;;;;;9862177;30;20040;-81
2022/10/01 20:02:53;;;;;;;24.38;14.02;;;10.60;99.90;;;;;;9860148;30;20047;-81
2022/10/01 20:07:58;;;;;;;24.00;13.40;;;10.60;99.90;;;;;;9853396;30;20582;-81
2022/10/01 20:13:21;;;;;;;26.30;14.30;;;10.60;99.90;;;;;;9860388;30;20665;-81
2022/10/01 20:18:38;;;;;;;34.35;20.77;;;10.50;99.90;;;;;;9861586;30;20047;-81
2022/10/01 20:23:52;;;;;;;43.42;25.23;;;10.50;99.90;;;;;;9861864;30;20051;-80
2022/10/01 20:29:12;;;;;;;49.97;29.30;;;10.50;99.90;;;;;;9858775;30;20103;-81
2022/10/01 20:34:47;;;;;;;41.95;20.67;;;10.50;99.90;;;;;;9860390;30;20042;-82
2022/10/01 20:39:54;;;;;;;34.55;18.75;;;10.50;99.90;;;;;;9856622;30;20067;-80
2022/10/01 20:44:55;;;;;;;27.17;14.60;;;10.50;99.90;;;;;;9856466;30;20170;-81
2022/10/01 20:50:21;;;;;;;31.38;16.05;;;10.50;99.90;;;;;;9853030;30;20519;-80
2022/10/01 20:55:28;;;;;;;24.60;14.95;;;10.50;99.90;;;;;;9861429;30;20036;-80
2022/10/01 21:00:29;;;;;;;26.55;15.18;;;10.50;99.90;;;;;;9856892;30;20049;-80
2022/10/01 21:05:48;;;;;;;40.65;21.20;;;10.50;99.90;;;;;;9860230;30;20062;-81
2022/10/01 21:10:55;;;;;;;33.88;21.08;;;10.40;99.90;;;;;;9860637;30;20519;-81
2022/10/01 21:16:32;;;;;;;40.25;23.40;;;10.40;99.90;;;;;;9858797;30;20070;-80
2022/10/01 21:22:14;;;;;;;43.72;24.90;;;10.40;99.90;;;;;;9855644;30;20543;-81
2022/10/01 21:27:33;;;;;;;42.10;24.13;;;10.40;99.90;;;;;;9856385;30;20070;-81
2022/10/01 21:33:04;;;;;;;39.30;24.40;;;10.30;99.90;;;;;;9855743;30;20576;-80
2022/10/01 21:38:14;;;;;;;48.00;29.00;;;10.40;99.90;;;;;;9859259;30;20034;-80
2022/10/01 21:43:22;;;;;;;45.45;28.17;;;10.30;99.90;;;;;;9845611;30;20051;-81
2022/10/01 21:48:49;;;;;;;40.80;25.35;;;10.30;99.90;;;;;;9867219;30;20063;-80
2022/10/01 21:53:52;;;;;;;45.80;28.15;;;10.30;99.90;;;;;;9867493;30;20038;-82
2022/10/01 21:59:11;;;;;;;36.97;22.33;;;10.30;99.90;;;;;;9863250;30;20097;-80
2022/10/01 22:04:20;;;;;;;38.90;24.80;;;10.30;99.90;;;;;;9861580;30;20059;-81
2022/10/01 22:09:28;;;;;;;44.42;27.17;;;10.30;99.90;;;;;;9865197;30;20039;-81
2022/10/01 22:14:30;;;;;;;37.60;23.00;;;10.30;99.90;;;;;;9865097;30;20127;-80
2022/10/01 22:19:37;;;;;;;36.80;20.55;;;10.30;99.90;;;;;;9865127;30;20062;-80
2022/10/01 22:24:45;;;;;;;25.58;14.55;;;10.40;99.90;;;;;;9865808;30;20036;-80
2022/10/01 22:29:58;;;;;;;23.63;13.32;;;10.30;99.90;;;;;;9855634;30;20032;-81
2022/10/01 22:35:05;;;;;;;20.35;12.20;;;10.30;99.90;;;;;;9865523;30;20035;-80
2022/10/01 22:40:17;;;;;;;24.17;14.05;;;10.30;99.90;;;;;;9853465;30;20139;-82
2022/10/01 22:45:19;;;;;;;30.67;18.77;;;10.30;99.90;;;;;;9865364;30;20096;-82
2022/10/01 22:50:47;;;;;;;27.63;18.02;;;10.30;99.90;;;;;;9849656;30;20028;-81
2022/10/01 22:55:57;;;;;;;32.60;18.92;;;10.30;99.90;;;;;;9854885;30;20039;-81
2022/10/01 23:01:00;;;;;;;41.65;23.33;;;10.30;99.90;;;;;;9864642;30;20039;-81
2022/10/01 23:06:41;;;;;;;39.38;24.77;;;10.20;99.90;;;;;;9848087;30;20118;-82
2022/10/01 23:11:57;;;;;;;41.72;24.63;;;10.20;99.90;;;;;;9841205;30;20488;-81
2022/10/01 23:17:15;;;;;;;32.17;19.52;;;10.20;99.90;;;;;;9843552;30;20048;-80
2022/10/01 23:22:40;;;;;;;42.38;24.55;;;10.20;99.90;;;;;;9863224;30;20047;-81
2022/10/01 23:27:59;;;;;;;63.45;37.83;;;10.20;99.90;;;;;;9863046;30;20051;-81
2022/10/01 23:33:14;;;;;;;53.30;31.55;;;10.20;99.90;;;;;;9862276;30;20040;-81
2022/10/01 23:38:20;;;;;;;43.00;27.07;;;10.20;99.90;;;;;;9861898;30;20039;-82
2022/10/01 23:43:34;;;;;;;48.55;29.60;;;10.20;99.90;;;;;;9843641;30;20121;-81
2022/10/01 23:48:59;;;;;;;48.65;28.60;;;10.30;99.90;;;;;;9862637;30;20044;-81
2022/10/01 23:54:25;;;;;;;55.08;31.98;;;10.30;99.90;;;;;;9862278;30;20039;-83
2022/10/01 23:59:34;;;;;;;46.20;26.85;;;10.40;99.90;;;;;;9848574;30;20059;-83
